Tiempo atmosférico en la estación meteorológica de Agüimes, Las Palmas (306 m.)



Fecha
DESCASC
Temp. máxima en grados centígrados (hora)
DESCASC
Temp. mínima en grados centígrados (hora)
DESCASC
Temp. media en grados centígrados
DESCASC
Racha de viento máxima en m/sg (hora)
DESCASC
Velocidad máxima media en intervalos de 10 minutos(hora)
DESCASC
Precipitaciones diarias en mm
DESCASC
Precipitaciones de 00:00 a 06:00 en mm
DESCASC
Precipitaciones de 06:00 a 12:00 en mm
DESCASC
Precipitaciones de 12:00 a 18:00 en mm
DESCASC
Precipitaciones de 18:00 a 24:00 en mm
DESCASC
19-01-2020 23.5 (12:40) 15.1 (21:50) 19.3 13.61 (22:50) 8.89 (15:50) 0 0 0 0 0
18-01-2020 21.1 (15:30) 14.8 (00:50) 18 10.83 (21:00) 6.94 (23:10) 0 0 0 0 0
17-01-2020 20 (13:50) 13.2 (06:20) 16.6 9.17 (01:00) 6.39 (01:10) 0 0 0 0 0
16-01-2020 20.5 (14:30) 12 (00:00) 16.3 7.5 (14:20) 5 (23:50) 0 0 0 0 0
15-01-2020 20.1 (14:20) 12 (00:00) 16.1 7.22 (14:00) 4.17 (01:50) 0 0 0 0 0
14-01-2020 20.8 (13:40) 13.1 (00:00) 16.9 10.83 (14:40) 8.06 (15:10) 0 0 0 0 0
13-01-2020 21.1 (13:30) 13.7 (00:00) 17.4 10.56 (00:30) 6.94 (16:50) 0 0 0 0 0
12-01-2020 19.9 (14:20) 14.2 (00:00) 17 13.61 (07:10) 8.33 (05:50) 0 0 0 0 0
11-01-2020 19.6 (14:20) 14.4 (00:00) 17 14.72 (05:10) 10 (12:40) 0 0 0 0 0
10-01-2020 19.2 (14:30) 14.6 (00:00) 16.9 15.83 (00:20) 11.11 (00:20) 0.8 0 0.8 0 0
09-01-2020 19.5 (14:40) 14.1 (00:00) 16.8 15.83 (15:10) 10.28 (16:10) 0 0 0 0 0
08-01-2020 19.6 (14:20) 14.1 (00:00) 16.9 11.11 (23:20) 7.22 (00:50) 0 0 0 0 0
07-01-2020 19.6 (13:30) 13.7 (00:00) 16.7 11.67 (01:20) 7.5 (01:30) 0.4 0.4 0 0 0
06-01-2020 19.6 (15:00) 14.5 (00:00) 17.1 13.61 (21:00) 8.61 (21:50) 0 0 0 0 0
05-01-2020 20.2 (12:40) 14 (00:00) 17.1 12.22 (06:30) 8.61 (06:20) 0 0 0 0 0
04-01-2020 20 (13:10) 13.8 (00:00) 16.9 10 (23:50) 6.39 (23:40) 0 0 0 0 0
03-01-2020 19 (15:30) 12.2 (00:00) 15.6 8.61 (21:40) 5.28 (20:30) 0 0 0 0 0
02-01-2020 18.1 (14:30) 13 (00:00) 15.6 7.5 (11:50) 4.17 (17:00) 0 0 0 0 0
01-01-2020 18.6 (12:20) 13.4 (00:00) 16 7.78 (11:50) 5.56 (13:10) 0 0 0 0 0
31-12-2019 21.2 (00:00) 13.6 (00:00) 17.4 8.33 (06:10) 5.28 (06:10) 0 0 0 0 0
30-12-2019 -- (--) -- (--) -- -- (--) -- (--) -- 0 0 -- 0
29-12-2019 24.2 (15:30) 16.8 (00:00) 20.5 7.22 (03:30) 4.72 (02:50) 0 0 0 0 0
28-12-2019 24.2 (13:10) 16.8 (00:00) 20.5 6.94 (04:40) 3.89 (00:30) 0 0 0 0 0
27-12-2019 24.3 (13:00) 16.8 (00:00) 20.5 6.94 (13:40) 4.72 (20:40) 0 0 0 0 0
26-12-2019 22.8 (12:20) 15.6 (00:00) 19.2 9.44 (04:50) 6.11 (09:10) 0 0 0 0 0
25-12-2019 24.5 (10:30) 18.1 (00:00) 21.3 10.28 (21:10) 6.39 (21:30) 0 0 0 0 0
24-12-2019 27.2 (14:40) 15.9 (00:00) 21.6 11.11 (14:30) 7.5 (15:20) 0 0 0 0 0
23-12-2019 22.5 (14:10) 13.8 (00:00) 18.2 11.11 (00:40) 7.5 (00:40) 0 0 0 0 0

Gráficas

Temp. máximas Temp. mínimas Temp. medias Precipitaciones Rachas de viento máximas Velocidades máximas media en intervalos de 10 minutos

Datos horarios

Fecha y hora oficial Temperatura (ºC) Velocidad del viento (km/h) Dirección del viento Racha (km/h) Dirección de racha Precipitación (mm) Presión (hPa) Tendencia (hPa) Humedad (%)
2020-01-21 23:00:00 12.9 7 Noroeste 15 Noroeste 0 -- -- 65
2020-01-21 22:00:00 13.1 8 Norte 12 Norte 0 -- -- 56
2020-01-21 21:00:00 14.1 6 Noroeste 24 Noroeste 0 -- -- 66
2020-01-21 20:00:00 13.5 15 Norte 25 Norte 0 -- -- 66
2020-01-21 19:00:00 14.1 4 Oeste 22 Norte 0 -- -- 65
2020-01-21 18:00:00 13.9 14 Norte 32 Norte 0 -- -- 62
2020-01-21 17:00:00 14.9 15 Norte 26 Noroeste 0 -- -- 58
2020-01-21 16:00:00 15.2 5 Noroeste 23 Norte 0 -- -- 56
2020-01-21 15:00:00 15.8 4 Sudoeste 25 Norte 0 -- -- 54
2020-01-21 14:00:00 15.9 17 Norte 30 Noroeste 0 -- -- 51
2020-01-21 13:00:00 14.8 9 Norte 35 Norte 0 -- -- 60
2020-01-21 12:00:00 14.1 22 Norte 42 Norte 0 -- -- 68
2020-01-21 11:00:00 -- -- -- -- -- -- -- -- --
2020-01-21 10:00:00 15.8 30 Norte 42 Norte 0 -- -- 55
2020-01-21 09:00:00 14.7 19 Norte 37 Norte 0 -- -- 53
2020-01-21 08:00:00 13.6 21 Norte 35 Noroeste 0 -- -- 57
2020-01-21 07:00:00 13.4 23 Norte 30 Norte 0 -- -- 62
2020-01-21 06:00:00 13.4 18 Norte 37 Norte 0 -- -- 58
2020-01-21 05:00:00 13.5 22 Norte 42 Norte 0 -- -- 65
2020-01-21 04:00:00 13.8 30 Norte 46 Norte 0 -- -- 62
2020-01-21 03:00:00 13.6 28 Norte 44 Norte 0 -- -- 68
2020-01-21 02:00:00 13.4 26 Norte 43 Norte 0 -- -- 70
2020-01-21 01:00:00 13.3 30 Norte 44 Norte 0 -- -- 75
2020-01-21 00:00:00 14.2 22 Norte 38 Norte 0 -- -- 66
2020-01-20 23:00:00 13.7 24 Norte 44 Norte 0 -- -- 70
2020-01-20 22:00:00 14.4 25 Norte 45 Norte 0 -- -- 61
2020-01-20 21:00:00 14.7 24 Norte 48 Norte 0 -- -- 63
2020-01-20 20:00:00 14.9 33 Norte 49 Nordeste 0 -- -- 62
2020-01-20 19:00:00 15 28 Norte 49 Norte 0 -- -- 67
2020-01-20 18:00:00 15.6 28 Norte 49 Norte 0 -- -- 64
2020-01-20 17:00:00 16 33 Norte 48 Norte 0 -- -- 64
2020-01-20 16:00:00 16.9 36 Norte 53 Norte 0 -- -- 56
2020-01-20 15:00:00 17.8 35 Norte 57 Norte 0 -- -- 54
2020-01-20 14:00:00 18.9 33 Norte 57 Norte 0 -- -- 51
2020-01-20 13:00:00 17.4 41 Norte 57 Nordeste 0 -- -- 57
2020-01-20 12:00:00 17.2 35 Norte 57 Norte 0 -- -- 59
2020-01-20 11:00:00 16 37 Norte 51 Norte 0 -- -- 64
2020-01-20 10:00:00 15.2 31 Norte 51 Nordeste 0 -- -- 67
2020-01-20 09:00:00 14.6 32 Norte 49 Norte 0 -- -- 65
2020-01-20 08:00:00 14 36 Norte 50 Norte 0 -- -- 65
2020-01-20 07:00:00 14.3 36 Norte 53 Norte 0 -- -- 66
2020-01-20 06:00:00 14.4 30 Norte 61 Norte 0 -- -- 70
2020-01-20 05:00:00 14.6 41 Norte 60 Norte 0 -- -- 68
2020-01-20 04:00:00 14.7 28 Norte 48 Norte 0 -- -- 68
2020-01-20 03:00:00 14.9 21 Norte 48 Norte 0 -- -- 72
2020-01-20 02:00:00 14.8 32 Norte 54 Norte 0 -- -- 85
2020-01-20 01:00:00 15.5 27 Norte 46 Nordeste 0 -- -- 84
2020-01-20 00:00:00 16.5 28 Norte 46 Norte 0 -- -- 70
2020-01-19 23:00:00 16.3 30 Norte 49 Norte 0 -- -- 71
2020-01-19 22:00:00 15.2 25 Nordeste 38 Nordeste 0 -- -- 76
2020-01-19 21:00:00 15.8 26 Norte 42 Norte 0 -- -- 71
2020-01-19 20:00:00 15.6 26 Norte 40 Norte 0 -- -- 75
2020-01-19 19:00:00 15.5 28 Nordeste 42 Nordeste 0 -- -- 78
2020-01-19 18:00:00 16.7 28 Nordeste 48 Nordeste 0 -- -- 72
2020-01-19 17:00:00 19.4 28 Norte 46 Norte 0 -- -- 52
2020-01-19 16:00:00 21.2 30 Nordeste 45 Nordeste 0 -- -- 24
2020-01-19 15:00:00 21.7 30 Nordeste 43 Norte 0 -- -- 41
2020-01-19 14:00:00 22.1 25 Nordeste 38 Nordeste 0 -- -- 52
2020-01-19 13:00:00 23.1 20 Nordeste 30 Nordeste 0 -- -- 40
2020-01-19 12:00:00 22.8 19 Nordeste 31 Nordeste 0 -- -- 25
2020-01-19 11:00:00 21.7 18 Nordeste 31 Nordeste 0 -- -- 23
2020-01-19 10:00:00 20 18 Nordeste 27 Nordeste 0 -- -- 26
2020-01-19 09:00:00 18.5 15 Nordeste 27 Norte 0 -- -- 24
2020-01-19 08:00:00 17.1 16 Norte 25 Norte 0 -- -- 22
2020-01-19 07:00:00 16.8 18 Norte 28 Norte 0 -- -- 24
2020-01-19 06:00:00 17.1 21 Norte 29 Norte 0 -- -- 24
2020-01-19 05:00:00 17 19 Norte 30 Norte 0 -- -- 24
2020-01-19 04:00:00 16.8 17 Norte 29 Norte 0 -- -- 24
2020-01-19 03:00:00 16.9 19 Norte 28 Norte 0 -- -- 26
2020-01-19 02:00:00 17.1 19 Norte 32 Norte 0 -- -- 26
2020-01-19 01:00:00 17 22 Norte 33 Nordeste 0 -- -- 27
2020-01-19 00:00:00 16.6 19 Nordeste 36 Norte 0 -- -- 27
2020-01-18 23:00:00 17.1 24 Norte 36 Norte 0 -- -- 28
2020-01-18 22:00:00 17.8 18 Norte 33 Norte 0 -- -- 20
2020-01-18 21:00:00 18 24 Norte 39 Norte 0 -- -- 22
2020-01-18 20:00:00 17.7 18 Norte 31 Norte 0 -- -- 23
2020-01-18 19:00:00 17.8 19 Norte 28 Norte 0 -- -- 26
2020-01-18 18:00:00 18.7 14 Norte 23 Norte 0 -- -- 27
2020-01-18 17:00:00 19.6 14 Nordeste 21 Nordeste 0 -- -- 46
2020-01-18 16:00:00 20.7 13 Nordeste 20 Este 0 -- -- 42
2020-01-18 15:00:00 20.5 12 Este 21 Este 0 -- -- 38
2020-01-18 14:00:00 20.7 10 Este 19 Nordeste 0 -- -- 38
2020-01-18 13:00:00 20.3 9 Este 20 Nordeste 0 -- -- 35
2020-01-18 12:00:00 20.6 9 Este 23 Este 0 -- -- 36
2020-01-18 11:00:00 20.2 9 Este 19 Este 0 -- -- 32
2020-01-18 10:00:00 19.3 6 Nordeste 17 Nordeste 0 -- -- 32
2020-01-18 09:00:00 17.3 8 Norte 18 Norte 0 -- -- 31
2020-01-18 08:00:00 15.5 11 Norte 18 Norte 0 -- -- 35
2020-01-18 07:00:00 15.7 13 Norte 23 Norte 0 -- -- 36
2020-01-18 06:00:00 16.2 13 Norte 26 Norte 0 -- -- 32
2020-01-18 05:00:00 16.4 12 Norte 24 Norte 0 -- -- 27
2020-01-18 04:00:00 16.3 10 Norte 22 Norte 0 -- -- 24
2020-01-18 03:00:00 17.3 11 Norte 25 Noroeste 0 -- -- 22
2020-01-18 02:00:00 16 14 Nordeste 23 Norte 0 -- -- 23
2020-01-18 01:00:00 15 12 Norte 19 Norte 0 -- -- 22
2020-01-18 00:00:00 17.6 15 Norte 28 Noroeste 0 -- -- 18
2020-01-17 23:00:00 17.1 19 Norte 26 Norte 0 -- -- 24
2020-01-17 22:00:00 16.7 16 Norte 23 Norte 0 -- -- 21
2020-01-17 21:00:00 16.4 12 Norte 22 Norte 0 -- -- 24
2020-01-17 20:00:00 16 14 Norte 24 Norte 0 -- -- 39
2020-01-17 19:00:00 16.3 15 Norte 22 Norte 0 -- -- 40
2020-01-17 18:00:00 16.9 10 Nordeste 18 Nordeste 0 -- -- 42
2020-01-17 17:00:00 18.8 13 Nordeste 21 Este 0 -- -- 39
2020-01-17 16:00:00 19.8 11 Nordeste 22 Este 0 -- -- 44
2020-01-17 15:00:00 19.7 12 Nordeste 23 Nordeste 0 -- -- 47
2020-01-17 14:00:00 19.8 14 Nordeste 28 Nordeste 0 -- -- 50
2020-01-17 13:00:00 19.7 12 Nordeste 25 Este 0 -- -- 48
2020-01-17 12:00:00 19.3 12 Nordeste 21 Este 0 -- -- 43
2020-01-17 11:00:00 19 10 Este 21 Nordeste 0 -- -- 39
2020-01-17 10:00:00 17.7 8 Nordeste 16 Nordeste 0 -- -- 41
2020-01-17 09:00:00 15.4 7 Norte 14 Norte 0 -- -- 51
2020-01-17 08:00:00 13.3 10 Norte 17 Norte 0 -- -- 49
2020-01-17 07:00:00 13.8 13 Norte 21 Norte 0 -- -- 42
2020-01-17 06:00:00 13.5 13 Norte 26 Norte 0 -- -- 62
2020-01-17 05:00:00 14.1 18 Norte 30 Norte 0 -- -- 47
2020-01-17 04:00:00 14.7 19 Norte 31 Norte 0 -- -- 31
2020-01-17 03:00:00 15.1 16 Norte 29 Norte 0 -- -- 26
2020-01-17 02:00:00 15.5 22 Norte 31 Norte 0 -- -- 31
2020-01-17 01:00:00 15.5 22 Norte 33 Norte 0 -- -- 35
2020-01-17 00:00:00 15.4 17 Norte 26 Norte 0 -- -- 39
2020-01-16 23:00:00 15.1 14 Norte 24 Norte 0 -- -- 38
2020-01-16 22:00:00 15.3 13 Norte 22 Norte 0 -- -- 34
2020-01-16 21:00:00 15.3 12 Norte 17 Norte 0 -- -- 33
2020-01-16 20:00:00 14.7 10 Norte 15 Norte 0 -- -- 53
2020-01-16 19:00:00 15.7 8 Norte 13 Nordeste 0 -- -- 35
2020-01-16 18:00:00 17.5 9 Nordeste 18 Nordeste 0 -- -- 48
2020-01-16 17:00:00 19.2 9 Nordeste 16 Nordeste 0 -- -- 35
2020-01-16 16:00:00 19.7 9 Nordeste 18 Este 0 -- -- 39
2020-01-16 15:00:00 20.2 10 Este 27 Sur 0 -- -- 36
2020-01-16 14:00:00 20 10 Sudeste 26 Sur 0 -- -- 43
2020-01-16 13:00:00 20.3 10 Sudeste 26 Sudeste 0 -- -- 43
2020-01-16 12:00:00 19.9 7 Sudeste 20 Sudeste 0 -- -- 43
2020-01-16 11:00:00 19.3 6 Sur 13 Sur 0 -- -- 47
2020-01-16 10:00:00 17.2 0 Calma 7 Este 0 -- -- 59
2020-01-16 09:00:00 14.9 4 Norte 7 Noroeste 0 -- -- 68
2020-01-16 08:00:00 12.1 5 Noroeste 10 Norte 0 -- -- 67
2020-01-16 07:00:00 12.3 10 Norte 13 Norte 0 -- -- 47
2020-01-16 06:00:00 12 6 Norte 11 Noroeste 0 -- -- 38
2020-01-16 05:00:00 12.8 3 Norte 12 Noroeste 0 -- -- 36
2020-01-16 04:00:00 12.6 9 Noroeste 11 Noroeste 0 -- -- 57
2020-01-16 03:00:00 12 7 Norte 10 Norte 0 -- -- 48
2020-01-16 02:00:00 12.4 7 Norte 9 Norte 0 -- -- 43
2020-01-16 01:00:00 13.6 2 Nordeste 10 Oeste 0 -- -- 33
2020-01-16 00:00:00 14.4 7 Oeste 12 Oeste 0 -- -- 31
2020-01-15 23:00:00 14.2 6 Noroeste 10 Noroeste 0 -- -- 31
2020-01-15 22:00:00 14.1 5 Noroeste 8 Noroeste 0 -- -- 32
2020-01-15 21:00:00 14.5 2 Sudoeste 8 Noroeste 0 -- -- 36
2020-01-15 20:00:00 15 3 Noroeste 10 Noroeste 0 -- -- 31
2020-01-15 19:00:00 15.6 3 Noroeste 6 Noroeste 0 -- -- 36
2020-01-15 18:00:00 16.7 3 Nordeste 10 Este 0 -- -- 47
2020-01-15 17:00:00 17.8 8 Este 21 Sudeste 0 -- -- 50
2020-01-15 16:00:00 18.8 14 Sur 24 Sudeste 0 -- -- 47
2020-01-15 15:00:00 19.5 14 Sudeste 26 Sudeste 0 -- -- 44
2020-01-15 14:00:00 20 13 Sur 26 Sur 0 -- -- 38
2020-01-15 13:00:00 19.8 13 Sur 24 Sur 0 -- -- 40
2020-01-15 12:00:00 19.1 10 Sudeste 24 Sudeste 0 -- -- 52
2020-01-15 11:00:00 18.7 10 Sudeste 22 Sur 0 -- -- 47
2020-01-15 10:00:00 18.1 6 Sudeste 11 Sudeste 0 -- -- 38
2020-01-15 09:00:00 14.7 7 Oeste 13 Oeste 0 -- -- 34
2020-01-15 08:00:00 12 8 Noroeste 12 Noroeste 0 -- -- 59
2020-01-15 07:00:00 12.6 7 Oeste 10 Oeste 0 -- -- 68
2020-01-15 06:00:00 12.5 0 Calma 5 Noroeste 0 -- -- 55
2020-01-15 05:00:00 12.4 0 Calma 7 Oeste 0 -- -- 41
2020-01-15 04:00:00 13.6 5 Oeste 12 Oeste 0 -- -- 36
2020-01-15 03:00:00 13.7 2 Oeste 15 Oeste 0 -- -- 36
2020-01-15 02:00:00 15.2 12 Oeste 22 Oeste 0 -- -- 31
2020-01-15 01:00:00 14.6 15 Oeste 18 Oeste 0 -- -- 32
2020-01-15 00:00:00 14.7 13 Oeste 18 Oeste 0 -- -- 32
2020-01-14 23:00:00 14.8 13 Oeste 19 Sudoeste 0 -- -- 33
2020-01-14 22:00:00 14.2 12 Oeste 19 Sudoeste 0 -- -- 36
2020-01-14 21:00:00 13.4 7 Oeste 13 Sudoeste 0 -- -- 54
2020-01-14 20:00:00 14 6 Oeste 15 Sudoeste 0 -- -- 60
2020-01-14 19:00:00 14.8 9 Sur 20 Sur 0 -- -- 58
2020-01-14 18:00:00 16.4 15 Sur 30 Sur 0 -- -- 54
2020-01-14 17:00:00 17.9 22 Sur 33 Sur 0 -- -- 45
2020-01-14 16:00:00 19.2 24 Sur 39 Sudoeste 0 -- -- 36
2020-01-14 15:00:00 19.7 27 Sur 39 Sur 0 -- -- 33
2020-01-14 14:00:00 20.5 22 Sur 35 Sur 0 -- -- 37
2020-01-14 13:00:00 20.3 19 Sudoeste 36 Sur 0 -- -- 35
2020-01-14 12:00:00 20.3 20 Sur 32 Sur 0 -- -- 35
2020-01-14 11:00:00 19.2 18 Sur 28 Sur 0 -- -- 45
2020-01-14 10:00:00 18 15 Sudoeste 30 Sudoeste 0 -- -- 48
2020-01-14 09:00:00 16.2 14 Sudoeste 19 Sudoeste 0 -- -- 58
2020-01-14 08:00:00 14.3 11 Sudoeste 22 Sudoeste 0 -- -- 66
2020-01-14 07:00:00 13.1 8 Sudoeste 11 Sudoeste 0 -- -- 51
2020-01-14 06:00:00 13.8 6 Sudoeste 13 Sudoeste 0 -- -- 53
2020-01-14 05:00:00 13.7 6 Oeste 11 Noroeste 0 -- -- 54
2020-01-14 04:00:00 13.8 8 Noroeste 12 Oeste 0 -- -- 42
2020-01-14 03:00:00 13.5 6 Oeste 9 Oeste 0 -- -- 61
2020-01-14 02:00:00 13.4 5 Oeste 8 Noroeste 0 -- -- 76
2020-01-14 01:00:00 14.1 3 Oeste 17 Sudoeste 0 -- -- 61
2020-01-14 00:00:00 15.9 12 Oeste 18 Sudoeste 0 -- -- 29
2020-01-13 23:00:00 17.2 12 Sudoeste 22 Sudoeste 0 -- -- 27
2020-01-13 22:00:00 17.4 13 Sudoeste 26 Sur 0 -- -- 27
2020-01-13 21:00:00 17.5 17 Sudoeste 31 Sudoeste 0 -- -- 28
2020-01-13 20:00:00 17 13 Sudoeste 25 Sudoeste 0 -- -- 31
2020-01-13 19:00:00 17.1 16 Sudoeste 30 Sur 0 -- -- 33
2020-01-13 18:00:00 17.5 18 Sudoeste 33 Sur 0 -- -- 36
2020-01-13 17:00:00 18.4 23 Sur 33 Sur 0 -- -- 44
2020-01-13 16:00:00 19.6 19 Sur 30 Sur 0 -- -- 47
2020-01-13 15:00:00 20.3 22 Sur 31 Sur 0 -- -- 44
2020-01-13 14:00:00 21 19 Sur 37 Sur 0 -- -- 44
2020-01-13 13:00:00 20.9 18 Sur 33 Sur 0 -- -- 42
2020-01-13 12:00:00 19.6 12 Sudeste 22 Sur 0 -- -- 60
2020-01-13 11:00:00 19.2 8 Sudeste 13 Sudeste 0 -- -- 57
2020-01-13 10:00:00 17.9 5 Este 11 Nordeste 0 -- -- 58
2020-01-13 09:00:00 15.4 7 Norte 17 Norte 0 -- -- 65
2020-01-13 08:00:00 13.8 13 Norte 21 Norte 0 -- -- 72
2020-01-13 07:00:00 14.1 14 Norte 19 Norte 0 -- -- 75
2020-01-13 06:00:00 14.4 13 Norte 27 Nordeste 0 -- -- 70
2020-01-13 05:00:00 14.7 17 Norte 30 Norte 0 -- -- 66
2020-01-13 04:00:00 15 10 Norte 30 Norte 0 -- -- 58
2020-01-13 03:00:00 15.3 14 Norte 30 Nordeste 0 -- -- 52
2020-01-13 02:00:00 15.8 15 Norte 35 Norte 0 -- -- 44
2020-01-13 01:00:00 15.6 16 Norte 38 Norte 0 -- -- 48
2020-01-13 00:00:00 15.6 22 Norte 34 Norte 0 -- -- 43
2020-01-12 23:00:00 15.5 17 Norte 32 Norte 0 -- -- 41
2020-01-12 22:00:00 15.6 18 Norte 32 Norte 0 -- -- 38
2020-01-12 21:00:00 15.2 14 Norte 23 Norte 0 -- -- 39
2020-01-12 20:00:00 14.8 16 Norte 24 Norte 0 -- -- 53
2020-01-12 19:00:00 14.8 12 Nordeste 19 Nordeste 0 -- -- 64
2020-01-12 18:00:00 16.1 14 Nordeste 19 Nordeste 0 -- -- 60
2020-01-12 17:00:00 17.8 13 Nordeste 22 Nordeste 0 -- -- 55
2020-01-12 16:00:00 18.9 12 Nordeste 26 Nordeste 0 -- -- 49
2020-01-12 15:00:00 19.1 11 Nordeste 25 Este 0 -- -- 46
2020-01-12 14:00:00 19.6 15 Nordeste 27 Este 0 -- -- 49
2020-01-12 13:00:00 18.8 18 Nordeste 35 Nordeste 0 -- -- 59
2020-01-12 12:00:00 17.8 24 Nordeste 41 Nordeste 0 -- -- 59
2020-01-12 11:00:00 18.1 26 Nordeste 39 Nordeste 0 -- -- 59
2020-01-12 10:00:00 16.1 19 Norte 34 Norte 0 -- -- 62
2020-01-12 09:00:00 15.2 22 Norte 37 Norte 0 -- -- 66
2020-01-12 08:00:00 14.7 23 Norte 49 Norte 0 -- -- 66
2020-01-12 07:00:00 14.5 29 Norte 46 Norte 0 -- -- 72
2020-01-12 06:00:00 14.3 28 Norte 44 Norte 0 -- -- 75
2020-01-12 05:00:00 14.6 22 Norte 35 Norte 0 -- -- 74
2020-01-12 04:00:00 14.9 22 Norte 33 Norte 0 -- -- 71
2020-01-12 03:00:00 14.8 22 Norte 37 Norte 0 -- -- 71
2020-01-12 02:00:00 15 20 Norte 36 Norte 0 -- -- 72
2020-01-12 01:00:00 15.2 18 Norte 32 Norte 0 -- -- 70
2020-01-12 00:00:00 15.3 17 Norte 33 Norte 0 -- -- 66
2020-01-11 23:00:00 14.7 22 Norte 35 Norte 0 -- -- 75
2020-01-11 22:00:00 15.1 17 Norte 36 Norte 0 -- -- 70
2020-01-11 21:00:00 14.9 26 Norte 44 Norte 0 -- -- 71
2020-01-11 20:00:00 15.3 18 Norte 41 Noroeste 0 -- -- 64
2020-01-11 19:00:00 15.1 21 Norte 34 Norte 0 -- -- 73
2020-01-11 18:00:00 15.3 16 Norte 37 Norte 0 -- -- 76
2020-01-11 17:00:00 17 27 Norte 44 Norte 0 -- -- 66
2020-01-11 16:00:00 18.4 30 Norte 46 Norte 0 -- -- 64
2020-01-11 15:00:00 18.7 32 Norte 50 Norte 0 -- -- 58
2020-01-11 14:00:00 19.3 32 Norte 46 Norte 0 -- -- 58
2020-01-11 13:00:00 18.9 33 Norte 49 Nordeste 0 -- -- 58
2020-01-11 12:00:00 18.1 27 Norte 45 Norte 0 -- -- 59
2020-01-11 11:00:00 16.7 24 Nordeste 37 Norte 0 -- -- 67
2020-01-11 10:00:00 16.5 25 Norte 41 Norte 0 -- -- 64
2020-01-11 09:00:00 15.2 23 Norte 46 Norte 0 -- -- 65
2020-01-11 08:00:00 14.6 31 Norte 45 Noroeste 0 -- -- 69
2020-01-11 07:00:00 14.6 30 Norte 51 Norte 0 -- -- 70
2020-01-11 06:00:00 14.6 26 Norte 53 Norte 0 -- -- 72
2020-01-11 05:00:00 14.7 30 Norte 47 Norte 0 -- -- 71
2020-01-11 04:00:00 14.9 31 Norte 44 Nordeste 0 -- -- 80
2020-01-11 03:00:00 15.5 22 Norte 45 Norte 0 -- -- 69
2020-01-11 02:00:00 14.9 27 Norte 49 Nordeste 0 -- -- 83
2020-01-11 01:00:00 15.1 30 Norte 49 Norte 0 -- -- 82
2020-01-11 00:00:00 14.9 27 Nordeste 50 Norte 0 -- -- 85
2020-01-10 23:00:00 15.8 29 Norte 48 Norte 0 -- -- 70
2020-01-10 22:00:00 15.8 29 Norte 54 Norte 0 -- -- 71
2020-01-10 21:00:00 16 26 Norte 50 Norte 0 -- -- 66
2020-01-10 20:00:00 16.2 28 Norte 46 Norte 0 -- -- 65
2020-01-10 19:00:00 16.2 25 Norte 43 Norte 0 -- -- 71
2020-01-10 18:00:00 16.6 26 Norte 52 Norte 0 -- -- 73
2020-01-10 17:00:00 17.2 27 Norte 47 Norte 0 -- -- 70
2020-01-10 16:00:00 18.2 29 Norte 50 Norte 0 -- -- 66
2020-01-10 15:00:00 18.4 32 Nordeste 55 Nordeste 0 -- -- 65
2020-01-10 14:00:00 18.5 35 Norte 57 Norte 0 -- -- 65
2020-01-10 13:00:00 17.4 31 Norte 49 Nordeste 0 -- -- 76
2020-01-10 12:00:00 16.5 32 Norte 48 Norte 0.2 -- -- 81
2020-01-10 11:00:00 15.6 26 Nordeste 42 Nordeste 0.4 -- -- 89
2020-01-10 10:00:00 15.2 28 Norte 49 Norte 0.2 -- -- 91
2020-01-10 09:00:00 16.2 31 Norte 53 Norte 0 -- -- 77
2020-01-10 08:00:00 15.1 27 Norte 53 Norte 0 -- -- 82
2020-01-10 07:00:00 14.9 27 Norte 44 Norte 0 -- -- 82
2020-01-10 06:00:00 15.9 24 Norte 46 Norte 0 -- -- 71
2020-01-10 05:00:00 15.4 32 Norte 49 Norte 0 -- -- 75
2020-01-10 04:00:00 15.3 27 Norte 46 Norte 0 -- -- 73
2020-01-10 03:00:00 15.1 26 Norte 47 Nordeste 0 -- -- 75
2020-01-10 02:00:00 15.7 27 Norte 51 Norte 0 -- -- 67
2020-01-10 01:00:00 15.2 29 Norte 57 Norte 0 -- -- 67
2020-01-10 00:00:00 15.4 36 Norte 54 Norte 0 -- -- 65
2020-01-09 23:00:00 15.2 32 Norte 48 Norte 0 -- -- 70
2020-01-09 22:00:00 15.5 29 Norte 55 Norte 0 -- -- 69
2020-01-09 21:00:00 15.4 31 Norte 46 Norte 0 -- -- 64
2020-01-09 20:00:00 15.5 28 Norte 48 Norte 0 -- -- 74
2020-01-09 19:00:00 15.8 30 Norte 49 Nordeste 0 -- -- 69
2020-01-09 18:00:00 16.3 31 Norte 49 Norte 0 -- -- 64
2020-01-09 17:00:00 18 28 Norte 52 Norte 0 -- -- 58
2020-01-09 16:00:00 18.5 36 Norte 57 Nordeste 0 -- -- 57
2020-01-09 15:00:00 19.3 36 Norte 53 Norte 0 -- -- 53
2020-01-09 14:00:00 19.3 36 Norte 52 Norte 0 -- -- 51
2020-01-09 13:00:00 19.3 30 Norte 50 Norte 0 -- -- 51
2020-01-09 12:00:00 18.6 32 Norte 45 Norte 0 -- -- 54
2020-01-09 11:00:00 16.5 28 Norte 43 Norte 0 -- -- 69
2020-01-09 10:00:00 16.3 25 Norte 55 Nordeste 0 -- -- 64
2020-01-09 09:00:00 15.1 25 Norte 43 Norte 0 -- -- 72
2020-01-09 08:00:00 14.9 24 Norte 40 Norte 0 -- -- 71
2020-01-09 07:00:00 15 25 Norte 42 Norte 0 -- -- 71
2020-01-09 06:00:00 14.8 26 Norte 41 Norte 0 -- -- 69
2020-01-09 05:00:00 14.7 21 Norte 34 Norte 0 -- -- 75
2020-01-09 04:00:00 14.6 19 Norte 31 Norte 0 -- -- 72
2020-01-09 03:00:00 14.4 19 Norte 30 Norte 0 -- -- 75
2020-01-09 02:00:00 14.3 17 Norte 29 Norte 0 -- -- 76
2020-01-09 01:00:00 14.6 18 Norte 30 Nordeste 0 -- -- 74
2020-01-09 00:00:00 15 19 Norte 40 Norte 0 -- -- 73
2020-01-08 23:00:00 14.8 23 Norte 36 Norte 0 -- -- 74
2020-01-08 22:00:00 15 17 Norte 33 Nordeste 0 -- -- 71
2020-01-08 21:00:00 15.2 20 Norte 33 Norte 0 -- -- 71
2020-01-08 20:00:00 15.3 19 Norte 36 Nordeste 0 -- -- 72
2020-01-08 19:00:00 15.6 23 Norte 38 Norte 0 -- -- 69
2020-01-08 18:00:00 16.5 21 Norte 36 Norte 0 -- -- 70
2020-01-08 17:00:00 17.6 23 Nordeste 36 Norte 0 -- -- 62
2020-01-08 16:00:00 18.7 22 Norte 35 Nordeste 0 -- -- 55
2020-01-08 15:00:00 18.9 22 Nordeste 40 Nordeste 0 -- -- 59
2020-01-08 14:00:00 19.3 22 Nordeste 38 Nordeste 0 -- -- 56
2020-01-08 13:00:00 18.4 21 Nordeste 36 Nordeste 0 -- -- 60
2020-01-08 12:00:00 17 20 Nordeste 33 Nordeste 0 -- -- 65
2020-01-08 11:00:00 17.9 21 Nordeste 33 Este 0 -- -- 64
2020-01-08 10:00:00 16.6 19 Nordeste 31 Nordeste 0 -- -- 67
2020-01-08 09:00:00 15.9 15 Norte 31 Nordeste 0 -- -- 71
2020-01-08 08:00:00 14.2 14 Norte 30 Norte 0 -- -- 77
2020-01-08 07:00:00 14.3 17 Norte 28 Norte 0 -- -- 76
2020-01-08 06:00:00 14.1 17 Norte 33 Norte 0 -- -- 77
2020-01-08 05:00:00 14.5 20 Norte 31 Norte 0 -- -- 77
2020-01-08 04:00:00 14.4 20 Norte 31 Norte 0 -- -- 76
2020-01-08 03:00:00 14.7 20 Norte 31 Norte 0 -- -- 77
2020-01-08 02:00:00 14.6 18 Norte 31 Norte 0 -- -- 77
2020-01-08 01:00:00 14.8 25 Norte 40 Norte 0 -- -- 74
2020-01-08 00:00:00 14.7 17 Norte 35 Norte 0 -- -- 76
2020-01-07 23:00:00 15 21 Norte 33 Nordeste 0 -- -- 76
2020-01-07 22:00:00 15.3 21 Norte 35 Norte 0 -- -- 76
2020-01-07 21:00:00 15.5 18 Nordeste 34 Nordeste 0 -- -- 81
2020-01-07 20:00:00 15.6 19 Norte 31 Norte 0 -- -- 79
2020-01-07 19:00:00 15.8 19 Nordeste 33 Nordeste 0 -- -- 75
2020-01-07 18:00:00 16.5 21 Norte 31 Nordeste 0 -- -- 64
2020-01-07 17:00:00 17.8 18 Norte 32 Nordeste 0 -- -- 49
2020-01-07 16:00:00 18.8 17 Norte 32 Nordeste 0 -- -- 49
2020-01-07 15:00:00 19.1 21 Nordeste 37 Nordeste 0 -- -- 52
2020-01-07 14:00:00 19 18 Nordeste 33 Nordeste 0 -- -- 53
2020-01-07 13:00:00 18.9 19 Nordeste 31 Nordeste 0 -- -- 60
2020-01-07 12:00:00 17.2 20 Nordeste 32 Este 0 -- -- 65
2020-01-07 11:00:00 16.8 22 Nordeste 32 Norte 0 -- -- 66
2020-01-07 10:00:00 16.5 21 Nordeste 34 Nordeste 0 -- -- 67
2020-01-07 09:00:00 15.2 19 Nordeste 29 Nordeste 0 -- -- 72
2020-01-07 08:00:00 14 14 Nordeste 31 Nordeste 0 -- -- 78
2020-01-07 07:00:00 13.9 20 Nordeste 29 Norte 0 -- -- 77
2020-01-07 06:00:00 14.2 17 Nordeste 29 Nordeste 0 -- -- 77
2020-01-07 05:00:00 13.9 15 Norte 31 Norte 0.2 -- -- 81
2020-01-07 04:00:00 14.4 17 Norte 32 Norte 0 -- -- 78
2020-01-07 03:00:00 14.3 19 Norte 39 Norte 0 -- -- 83
2020-01-07 02:00:00 14.1 25 Norte 42 Norte 0.2 -- -- 80
2020-01-07 01:00:00 15 26 Norte 39 Norte 0 -- -- 75
2020-01-07 00:00:00 14.9 19 Norte 40 Nordeste 0 -- -- 76
2020-01-06 23:00:00 15.1 26 Norte 41 Nordeste 0 -- -- 75
2020-01-06 22:00:00 14.8 30 Norte 45 Nordeste 0 -- -- 77
2020-01-06 21:00:00 14.7 29 Norte 49 Norte 0 -- -- 82
2020-01-06 20:00:00 15.4 24 Norte 36 Norte 0 -- -- 69
2020-01-06 19:00:00 15.6 19 Norte 33 Norte 0 -- -- 66
2020-01-06 18:00:00 16.1 21 Norte 42 Nordeste 0 -- -- 63
2020-01-06 17:00:00 17.5 25 Norte 43 Norte 0 -- -- 60
2020-01-06 16:00:00 19.1 22 Norte 44 Nordeste 0 -- -- 55
2020-01-06 15:00:00 19.6 22 Nordeste 39 Norte 0 -- -- 53
2020-01-06 14:00:00 19.3 24 Norte 47 Norte 0 -- -- 50
2020-01-06 13:00:00 18.8 29 Norte 44 Norte 0 -- -- 51
2020-01-06 12:00:00 18.2 23 Norte 44 Norte 0 -- -- 55
2020-01-06 11:00:00 18.1 30 Norte 48 Norte 0 -- -- 50
2020-01-06 10:00:00 17.2 21 Norte 38 Norte 0 -- -- 61
2020-01-06 09:00:00 15.9 24 Norte 38 Norte 0 -- -- 65